sensor_id;sensor_type;location;lat;lon;timestamp;pressure;altitude;pressure_sealevel;temperature;humidity
63535;BME280;55128;50.230;18.944;2023-04-01T00:03:09;96724.56;;;9.45;68.92
63535;BME280;55128;50.230;18.944;2023-04-01T00:08:09;96728.28;;;9.43;69.22
63535;BME280;55128;50.230;18.944;2023-04-01T00:13:09;96720.16;;;9.57;68.31
63535;BME280;55128;50.230;18.944;2023-04-01T00:18:10;96723.19;;;9.40;68.74
63535;BME280;55128;50.230;18.944;2023-04-01T00:23:11;96720.38;;;9.30;68.72
63535;BME280;55128;50.230;18.944;2023-04-01T00:28:12;96729.06;;;9.19;69.92
63535;BME280;55128;50.230;18.944;2023-04-01T00:33:13;96721.03;;;9.21;70.24
63535;BME280;55128;50.230;18.944;2023-04-01T00:38:13;96715.38;;;9.38;70.37
63535;BME280;55128;50.230;18.944;2023-04-01T00:43:19;96713.69;;;9.37;70.26
63535;BME280;55128;50.230;18.944;2023-04-01T00:48:23;96719.97;;;9.23;70.34
63535;BME280;55128;50.230;18.944;2023-04-01T00:53:26;96722.03;;;8.94;71.42
63535;BME280;55128;50.230;18.944;2023-04-01T00:58:31;96729.44;;;9.02;71.72
63535;BME280;55128;50.230;18.944;2023-04-01T01:03:33;96730.59;;;9.10;71.55
63535;BME280;55128;50.230;18.944;2023-04-01T01:08:50;96735.09;;;9.21;71.37
63535;BME280;55128;50.230;18.944;2023-04-01T01:14:12;96731.81;;;9.30;71.21
63535;BME280;55128;50.230;18.944;2023-04-01T01:24:30;96717.84;;;9.28;71.19
63535;BME280;55128;50.230;18.944;2023-04-01T01:35:20;96709.88;;;9.28;70.60
63535;BME280;55128;50.230;18.944;2023-04-01T01:40:24;96715.91;;;9.30;70.98
63535;BME280;55128;50.230;18.944;2023-04-01T01:45:27;96702.56;;;9.32;70.58
63535;BME280;55128;50.230;18.944;2023-04-01T01:50:28;96703.91;;;9.13;70.65
63535;BME280;55128;50.230;18.944;2023-04-01T01:55:32;96700.97;;;8.92;71.50
63535;BME280;55128;50.230;18.944;2023-04-01T02:00:33;96707.25;;;8.66;71.79
63535;BME280;55128;50.230;18.944;2023-04-01T02:05:35;96714.34;;;8.65;72.59
63535;BME280;55128;50.230;18.944;2023-04-01T02:10:39;96716.22;;;8.63;72.53
63535;BME280;55128;50.230;18.944;2023-04-01T02:15:45;96715.81;;;8.69;72.98
63535;BME280;55128;50.230;18.944;2023-04-01T02:20:48;96714.94;;;8.69;73.04
63535;BME280;55128;50.230;18.944;2023-04-01T02:25:49;96722.78;;;8.83;72.95
63535;BME280;55128;50.230;18.944;2023-04-01T02:30:51;96722.97;;;8.93;73.00
63535;BME280;55128;50.230;18.944;2023-04-01T02:35:52;96723.94;;;9.05;72.68
63535;BME280;55128;50.230;18.944;2023-04-01T02:40:59;96724.88;;;9.04;72.40
63535;BME280;55128;50.230;18.944;2023-04-01T02:45:59;96727.81;;;9.12;72.25
63535;BME280;55128;50.230;18.944;2023-04-01T02:51:01;96728.56;;;9.14;72.17
63535;BME280;55128;50.230;18.944;2023-04-01T02:56:01;96735.66;;;9.13;72.08
63535;BME280;55128;50.230;18.944;2023-04-01T03:01:02;96728.88;;;9.22;72.09
63535;BME280;55128;50.230;18.944;2023-04-01T03:06:10;96727.69;;;9.26;71.84
63535;BME280;55128;50.230;18.944;2023-04-01T03:11:12;96739.75;;;9.30;71.47
63535;BME280;55128;50.230;18.944;2023-04-01T03:16:13;96738.19;;;9.28;71.74
63535;BME280;55128;50.230;18.944;2023-04-01T03:21:14;96739.13;;;9.27;71.82
63535;BME280;55128;50.230;18.944;2023-04-01T03:26:16;96731.19;;;9.27;71.69
63535;BME280;55128;50.230;18.944;2023-04-01T03:31:16;96734.25;;;9.33;71.24
63535;BME280;55128;50.230;18.944;2023-04-01T03:36:17;96742.63;;;9.27;71.75
63535;BME280;55128;50.230;18.944;2023-04-01T03:41:18;96742.50;;;9.29;71.87
63535;BME280;55128;50.230;18.944;2023-04-01T03:46:19;96739.34;;;9.37;71.70
63535;BME280;55128;50.230;18.944;2023-04-01T03:51:19;96745.19;;;9.53;71.49
63535;BME280;55128;50.230;18.944;2023-04-01T03:56:20;96746.06;;;9.53;71.23
63535;BME280;55128;50.230;18.944;2023-04-01T04:01:21;96747.47;;;9.46;71.52
63535;BME280;55128;50.230;18.944;2023-04-01T04:06:23;96744.16;;;9.56;71.52
63535;BME280;55128;50.230;18.944;2023-04-01T04:11:23;96742.06;;;9.48;71.12
63535;BME280;55128;50.230;18.944;2023-04-01T04:16:24;96747.34;;;9.48;71.35
63535;BME280;55128;50.230;18.944;2023-04-01T04:21:24;96737.69;;;9.47;71.18
63535;BME280;55128;50.230;18.944;2023-04-01T04:26:25;96739.81;;;9.42;71.55
63535;BME280;55128;50.230;18.944;2023-04-01T04:31:26;96738.59;;;9.59;71.47
63535;BME280;55128;50.230;18.944;2023-04-01T04:36:26;96732.13;;;9.63;71.64
63535;BME280;55128;50.230;18.944;2023-04-01T04:41:27;96730.63;;;9.71;71.26
63535;BME280;55128;50.230;18.944;2023-04-01T04:46:27;96737.56;;;9.85;71.27
63535;BME280;55128;50.230;18.944;2023-04-01T04:51:27;96739.75;;;9.91;71.02
63535;BME280;55128;50.230;18.944;2023-04-01T04:56:28;96737.88;;;10.05;70.29
63535;BME280;55128;50.230;18.944;2023-04-01T05:01:28;96744.75;;;10.07;70.53
63535;BME280;55128;50.230;18.944;2023-04-01T05:06:29;96745.81;;;10.29;70.19
63535;BME280;55128;50.230;18.944;2023-04-01T05:11:29;96754.22;;;10.23;69.90
63535;BME280;55128;50.230;18.944;2023-04-01T05:16:30;96753.63;;;10.66;68.68
63535;BME280;55128;50.230;18.944;2023-04-01T05:21:31;96752.97;;;10.98;67.60
63535;BME280;55128;50.230;18.944;2023-04-01T05:26:31;96748.53;;;11.98;64.69
63535;BME280;55128;50.230;18.944;2023-04-01T05:31:32;96757.22;;;12.00;64.23
63535;BME280;55128;50.230;18.944;2023-04-01T05:36:34;96757.78;;;11.60;64.94
63535;BME280;55128;50.230;18.944;2023-04-01T05:41:36;96760.22;;;11.41;64.76
63535;BME280;55128;50.230;18.944;2023-04-01T05:46:37;96756.84;;;11.16;65.96
63535;BME280;55128;50.230;18.944;2023-04-01T05:51:37;96763.59;;;11.09;66.03
63535;BME280;55128;50.230;18.944;2023-04-01T05:56:38;96767.53;;;10.81;66.00
63535;BME280;55128;50.230;18.944;2023-04-01T06:01:38;96766.38;;;10.96;66.24
63535;BME280;55128;50.230;18.944;2023-04-01T06:06:39;96771.81;;;10.95;66.71
63535;BME280;55128;50.230;18.944;2023-04-01T06:23:18;96780.34;;;10.76;67.27
63535;BME280;55128;50.230;18.944;2023-04-01T06:28:41;96776.22;;;10.83;67.97
63535;BME280;55128;50.230;18.944;2023-04-01T06:33:55;96783.03;;;10.87;67.78
63535;BME280;55128;50.230;18.944;2023-04-01T06:39:27;96783.78;;;11.23;66.61
63535;BME280;55128;50.230;18.944;2023-04-01T06:44:56;96780.28;;;11.22;67.43
63535;BME280;55128;50.230;18.944;2023-04-01T06:50:03;96780.84;;;11.48;66.04
63535;BME280;55128;50.230;18.944;2023-04-01T06:55:18;96781.47;;;11.41;66.62
63535;BME280;55128;50.230;18.944;2023-04-01T07:05:51;96792.31;;;11.94;66.04
63535;BME280;55128;50.230;18.944;2023-04-01T07:11:04;96791.44;;;12.05;66.08
63535;BME280;55128;50.230;18.944;2023-04-01T07:16:11;96796.78;;;11.82;66.67
63535;BME280;55128;50.230;18.944;2023-04-01T07:21:41;96802.31;;;12.02;65.61
63535;BME280;55128;50.230;18.944;2023-04-01T07:26:44;96800.53;;;12.23;65.55
63535;BME280;55128;50.230;18.944;2023-04-01T07:32:09;96809.25;;;12.58;64.10
63535;BME280;55128;50.230;18.944;2023-04-01T07:37:26;96804.56;;;12.50;66.00
63535;BME280;55128;50.230;18.944;2023-04-01T07:53:38;96824.19;;;11.83;69.83
63535;BME280;55128;50.230;18.944;2023-04-01T07:59:01;96815.19;;;12.18;70.87
63535;BME280;55128;50.230;18.944;2023-04-01T08:09:25;96826.91;;;12.59;69.04
63535;BME280;55128;50.230;18.944;2023-04-01T08:25:13;96831.25;;;14.35;63.30
63535;BME280;55128;50.230;18.944;2023-04-01T08:30:24;96831.84;;;14.38;62.12
63535;BME280;55128;50.230;18.944;2023-04-01T08:46:48;96832.41;;;13.82;64.88
63535;BME280;55128;50.230;18.944;2023-04-01T09:24:23;96844.44;;;16.82;55.72
63535;BME280;55128;50.230;18.944;2023-04-01T09:30:11;96840.41;;;15.10;60.73
63535;BME280;55128;50.230;18.944;2023-04-01T09:46:11;96840.50;;;18.42;58.24
63535;BME280;55128;50.230;18.944;2023-04-01T09:57:04;96851.38;;;21.60;46.53
63535;BME280;55128;50.230;18.944;2023-04-01T10:13:23;96849.44;;;17.21;54.91
63535;BME280;55128;50.230;18.944;2023-04-01T10:24:46;96860.66;;;15.23;59.03
63535;BME280;55128;50.230;18.944;2023-04-01T10:30:07;96847.63;;;14.71;62.23
63535;BME280;55128;50.230;18.944;2023-04-01T10:40:35;96845.09;;;16.21;61.59
63535;BME280;55128;50.230;18.944;2023-04-01T10:51:20;96847.38;;;16.79;57.46
63535;BME280;55128;50.230;18.944;2023-04-01T10:56:34;96846.00;;;15.84;59.69
63535;BME280;55128;50.230;18.944;2023-04-01T11:07:22;96845.69;;;15.49;60.05
63535;BME280;55128;50.230;18.944;2023-04-01T11:29:03;96841.72;;;15.91;56.40
63535;BME280;55128;50.230;18.944;2023-04-01T11:40:03;96845.03;;;16.12;54.79
63535;BME280;55128;50.230;18.944;2023-04-01T11:50:46;96855.84;;;14.38;61.29
63535;BME280;55128;50.230;18.944;2023-04-01T11:56:14;96851.53;;;14.86;62.76
63535;BME280;55128;50.230;18.944;2023-04-01T12:01:44;96851.44;;;15.54;58.70
63535;BME280;55128;50.230;18.944;2023-04-01T12:18:18;96856.44;;;15.30;59.79
63535;BME280;55128;50.230;18.944;2023-04-01T12:49:52;96865.19;;;16.07;52.02
63535;BME280;55128;50.230;18.944;2023-04-01T12:55:07;96870.50;;;15.12;54.00
63535;BME280;55128;50.230;18.944;2023-04-01T13:11:00;96864.47;;;15.10;54.55
63535;BME280;55128;50.230;18.944;2023-04-01T13:16:05;96866.72;;;14.86;55.42
63535;BME280;55128;50.230;18.944;2023-04-01T13:21:20;96873.34;;;14.62;56.18
63535;BME280;55128;50.230;18.944;2023-04-01T13:26:27;96880.81;;;14.68;55.54
63535;BME280;55128;50.230;18.944;2023-04-01T13:47:54;96910.72;;;13.81;61.85
63535;BME280;55128;50.230;18.944;2023-04-01T14:03:49;96907.22;;;13.80;64.72
63535;BME280;55128;50.230;18.944;2023-04-01T14:09:18;96913.97;;;14.15;63.49
63535;BME280;55128;50.230;18.944;2023-04-01T14:20:22;96908.56;;;14.06;61.76
63535;BME280;55128;50.230;18.944;2023-04-01T14:30:57;96932.13;;;13.28;66.45
63535;BME280;55128;50.230;18.944;2023-04-01T14:51:51;96931.28;;;12.74;68.94
63535;BME280;55128;50.230;18.944;2023-04-01T14:57:11;96928.09;;;12.80;68.77
63535;BME280;55128;50.230;18.944;2023-04-01T15:24:07;96953.69;;;13.78;65.68
63535;BME280;55128;50.230;18.944;2023-04-01T15:29:26;96943.50;;;13.72;65.32
63535;BME280;55128;50.230;18.944;2023-04-01T15:35:29;96956.34;;;13.57;65.07
63535;BME280;55128;50.230;18.944;2023-04-01T15:50:48;96982.47;;;12.77;67.64
63535;BME280;55128;50.230;18.944;2023-04-01T15:56:16;96980.59;;;12.45;69.62
63535;BME280;55128;50.230;18.944;2023-04-01T16:01:46;96988.34;;;12.49;68.90
63535;BME280;55128;50.230;18.944;2023-04-01T16:18:31;96993.38;;;11.84;70.15
63535;BME280;55128;50.230;18.944;2023-04-01T16:23:29;96992.63;;;11.71;71.87
63535;BME280;55128;50.230;18.944;2023-04-01T16:28:48;96983.22;;;11.78;70.63
63535;BME280;55128;50.230;18.944;2023-04-01T16:33:56;97000.38;;;11.74;71.64
63535;BME280;55128;50.230;18.944;2023-04-01T16:39:25;97003.84;;;11.63;72.73
63535;BME280;55128;50.230;18.944;2023-04-01T16:44:27;97015.44;;;11.51;72.57
63535;BME280;55128;50.230;18.944;2023-04-01T16:49:32;97021.53;;;11.40;74.06
63535;BME280;55128;50.230;18.944;2023-04-01T16:54:53;97030.34;;;11.40;73.24
63535;BME280;55128;50.230;18.944;2023-04-01T17:05:16;97058.53;;;11.19;75.92
63535;BME280;55128;50.230;18.944;2023-04-01T17:21:28;97082.75;;;11.14;75.75
63535;BME280;55128;50.230;18.944;2023-04-01T17:26:42;97082.19;;;10.98;76.96
63535;BME280;55128;50.230;18.944;2023-04-01T17:42:24;97097.28;;;10.84;78.00
63535;BME280;55128;50.230;18.944;2023-04-01T17:47:46;97114.28;;;10.95;77.91
63535;BME280;55128;50.230;18.944;2023-04-01T17:58:20;97118.97;;;10.91;78.08
63535;BME280;55128;50.230;18.944;2023-04-01T18:03:44;97128.56;;;10.68;79.16
63535;BME280;55128;50.230;18.944;2023-04-01T18:09:21;97132.78;;;10.83;78.49
63535;BME280;55128;50.230;18.944;2023-04-01T18:19:45;97142.56;;;10.70;77.76
63535;BME280;55128;50.230;18.944;2023-04-01T18:24:59;97151.47;;;10.56;78.65
63535;BME280;55128;50.230;18.944;2023-04-01T18:30:30;97156.06;;;10.41;79.05
63535;BME280;55128;50.230;18.944;2023-04-01T18:35:44;97152.50;;;10.28;78.70
63535;BME280;55128;50.230;18.944;2023-04-01T18:41:15;97161.44;;;10.14;78.45
63535;BME280;55128;50.230;18.944;2023-04-01T18:46:17;97164.16;;;10.00;78.62
63535;BME280;55128;50.230;18.944;2023-04-01T18:56:31;97178.19;;;10.15;78.90
63535;BME280;55128;50.230;18.944;2023-04-01T19:01:55;97189.09;;;10.10;79.19
63535;BME280;55128;50.230;18.944;2023-04-01T19:07:00;97192.50;;;10.12;79.34
63535;BME280;55128;50.230;18.944;2023-04-01T19:17:52;97197.47;;;10.17;80.32
63535;BME280;55128;50.230;18.944;2023-04-01T19:28:36;97196.66;;;10.29;80.10
63535;BME280;55128;50.230;18.944;2023-04-01T19:33:58;97207.78;;;10.21;80.10
63535;BME280;55128;50.230;18.944;2023-04-01T20:06:03;97232.56;;;10.07;80.41
63535;BME280;55128;50.230;18.944;2023-04-01T20:11:17;97237.22;;;10.04;80.91
63535;BME280;55128;50.230;18.944;2023-04-01T20:16:20;97245.31;;;10.02;80.92
63535;BME280;55128;50.230;18.944;2023-04-01T20:21:35;97242.41;;;10.05;80.68
63535;BME280;55128;50.230;18.944;2023-04-01T20:26:40;97240.75;;;10.04;80.62
63535;BME280;55128;50.230;18.944;2023-04-01T20:31:42;97249.63;;;10.03;80.91
63535;BME280;55128;50.230;18.944;2023-04-01T20:37:13;97255.44;;;9.96;81.26
63535;BME280;55128;50.230;18.944;2023-04-01T20:42:34;97255.34;;;9.97;80.94
63535;BME280;55128;50.230;18.944;2023-04-01T20:52:56;97271.66;;;9.91;80.85
63535;BME280;55128;50.230;18.944;2023-04-01T20:58:08;97271.00;;;9.87;81.34
63535;BME280;55128;50.230;18.944;2023-04-01T21:03:24;97273.34;;;9.92;80.95
63535;BME280;55128;50.230;18.944;2023-04-01T21:09:02;97284.69;;;9.94;81.27
63535;BME280;55128;50.230;18.944;2023-04-01T21:14:28;97283.84;;;9.93;81.44
63535;BME280;55128;50.230;18.944;2023-04-01T21:19:49;97283.66;;;9.97;81.50
63535;BME280;55128;50.230;18.944;2023-04-01T21:30:07;97291.22;;;10.03;81.78
63535;BME280;55128;50.230;18.944;2023-04-01T21:35:35;97304.66;;;10.00;81.31
63535;BME280;55128;50.230;18.944;2023-04-01T21:46:59;97303.97;;;10.10;81.51
63535;BME280;55128;50.230;18.944;2023-04-01T21:52:46;97309.84;;;10.01;81.91
63535;BME280;55128;50.230;18.944;2023-04-01T22:14:01;97308.59;;;10.07;81.54
63535;BME280;55128;50.230;18.944;2023-04-01T22:19:30;97322.38;;;9.99;82.26
63535;BME280;55128;50.230;18.944;2023-04-01T22:35:29;97329.22;;;10.16;82.14
63535;BME280;55128;50.230;18.944;2023-04-01T22:56:18;97339.84;;;10.16;81.89
63535;BME280;55128;50.230;18.944;2023-04-01T23:01:24;97344.66;;;10.09;82.51
63535;BME280;55128;50.230;18.944;2023-04-01T23:06:32;97337.69;;;10.08;82.06
63535;BME280;55128;50.230;18.944;2023-04-01T23:11:46;97347.81;;;10.02;82.04
63535;BME280;55128;50.230;18.944;2023-04-01T23:17:09;97344.31;;;10.01;82.14
63535;BME280;55128;50.230;18.944;2023-04-01T23:22:35;97346.56;;;10.07;82.09
63535;BME280;55128;50.230;18.944;2023-04-01T23:27:51;97357.59;;;10.01;82.42
63535;BME280;55128;50.230;18.944;2023-04-01T23:32:53;97355.69;;;10.03;82.55
63535;BME280;55128;50.230;18.944;2023-04-01T23:37:54;97360.97;;;10.03;82.42
63535;BME280;55128;50.230;18.944;2023-04-01T23:42:54;97365.53;;;10.01;82.24
63535;BME280;55128;50.230;18.944;2023-04-01T23:47:55;97367.41;;;10.14;82.56
63535;BME280;55128;50.230;18.944;2023-04-01T23:53:02;97375.94;;;10.04;82.33
